Time;durP1;ratioP1;P1;durP2;ratioP2;P2;SDS_P1;SDS_P2;PMS_P1;PMS_P2;Temp;Humidity;BMP_temperature;BMP_pressure;BME280_temperature;BME280_humidity;BME280_pressure;Samples;Min_cycle;Max_cycle;Signal;HPM_P1;HPM_P2
2023/08/11 00:00:43;;;;;;;3.57;2.17;;;16.50;99.90;;;;;;4965431;28;20748;-66
2023/08/11 00:03:10;;;;;;;3.37;2.20;;;16.40;99.90;;;;;;4965549;28;20761;-67
2023/08/11 00:05:38;;;;;;;2.63;1.90;;;16.40;99.90;;;;;;4965999;28;20274;-66
2023/08/11 00:08:06;;;;;;;2.93;2.30;;;16.40;99.90;;;;;;4966121;28;20214;-66
2023/08/11 00:10:34;;;;;;;2.97;2.23;;;16.40;99.90;;;;;;4966362;28;20213;-66
2023/08/11 00:13:02;;;;;;;3.00;2.13;;;16.40;99.90;;;;;;4966277;28;20302;-66
2023/08/11 00:15:31;;;;;;;2.63;1.83;;;16.40;99.90;;;;;;4968665;28;20286;-66
2023/08/11 00:18:00;;;;;;;2.47;2.10;;;16.30;99.90;;;;;;4970223;28;20207;-66
2023/08/11 00:20:28;;;;;;;2.10;2.00;;;16.30;99.90;;;;;;4969895;28;20227;-66
2023/08/11 00:22:55;;;;;;;10.17;2.20;;;16.20;99.90;;;;;;4969863;28;20221;-66
2023/08/11 00:25:22;;;;;;;3.80;2.47;;;16.20;99.90;;;;;;4969492;28;20203;-66
2023/08/11 00:27:50;;;;;;;3.90;2.37;;;16.10;99.90;;;;;;4970081;28;21147;-66
2023/08/11 00:30:18;;;;;;;2.33;2.13;;;16.10;99.90;;;;;;4968884;28;20298;-66
2023/08/11 00:32:45;;;;;;;5.60;2.30;;;16.00;99.90;;;;;;4969135;28;20610;-65
2023/08/11 00:35:12;;;;;;;5.60;2.17;;;16.00;99.90;;;;;;4969420;28;20202;-65
2023/08/11 00:37:39;;;;;;;3.07;2.00;;;16.00;99.90;;;;;;4969549;28;20253;-66
2023/08/11 00:40:08;;;;;;;3.63;2.20;;;16.00;99.90;;;;;;4969690;28;20214;-66
2023/08/11 00:42:35;;;;;;;2.30;1.90;;;16.00;99.90;;;;;;4969616;28;20578;-66
2023/08/11 00:45:05;;;;;;;3.10;1.80;;;15.90;99.90;;;;;;4969174;28;20586;-66
2023/08/11 00:47:32;;;;;;;4.23;1.80;;;15.90;99.90;;;;;;4958710;28;20779;-66
2023/08/11 00:49:59;;;;;;;2.20;1.90;;;15.90;99.90;;;;;;4969614;28;20207;-66
2023/08/11 00:52:27;;;;;;;2.10;2.00;;;15.80;99.90;;;;;;4969220;28;20237;-66
2023/08/11 00:54:54;;;;;;;3.70;1.80;;;15.80;99.90;;;;;;4969679;28;20215;-66
2023/08/11 00:57:21;;;;;;;2.23;1.90;;;15.70;99.90;;;;;;4969184;28;20215;-66
2023/08/11 00:59:48;;;;;;;3.17;1.97;;;15.70;99.90;;;;;;4968830;28;20305;-66
2023/08/11 01:02:16;;;;;;;2.20;2.00;;;15.70;99.90;;;;;;4968761;28;20210;-66
2023/08/11 01:04:43;;;;;;;3.47;1.90;;;15.70;99.90;;;;;;4968746;28;20229;-66
2023/08/11 01:07:18;;;;;;;2.17;2.07;;;15.70;99.90;;;;;;4969008;28;20217;-66
2023/08/11 01:09:57;;;;;;;3.93;1.90;;;15.60;99.90;;;;;;4969035;28;20217;-66
2023/08/11 01:12:30;;;;;;;2.47;1.73;;;15.60;99.90;;;;;;4963145;28;20228;-66
2023/08/11 01:15:04;;;;;;;3.17;1.93;;;15.60;99.90;;;;;;4968755;28;20290;-66
2023/08/11 01:17:34;;;;;;;2.07;1.93;;;15.60;99.90;;;;;;4949333;28;20357;-66
2023/08/11 01:20:08;;;;;;;2.43;1.97;;;15.60;99.90;;;;;;4949244;28;20717;-66
2023/08/11 01:22:38;;;;;;;4.13;1.80;;;15.60;99.90;;;;;;4963902;28;20198;-66
2023/08/11 01:25:08;;;;;;;3.00;2.03;;;15.50;99.90;;;;;;4968158;28;20215;-66
2023/08/11 01:27:36;;;;;;;5.40;2.10;;;15.50;99.90;;;;;;4967843;28;20230;-66
2023/08/11 01:30:05;;;;;;;5.17;2.43;;;15.50;99.90;;;;;;4968219;28;20214;-66
2023/08/11 01:32:32;;;;;;;3.17;1.93;;;15.50;99.90;;;;;;4963667;28;20247;-66
2023/08/11 01:34:59;;;;;;;3.07;1.90;;;15.40;99.90;;;;;;4968061;28;20302;-66
2023/08/11 01:37:26;;;;;;;3.27;2.00;;;15.40;99.90;;;;;;4968193;28;20298;-66
2023/08/11 01:39:53;;;;;;;1.87;1.77;;;15.40;99.90;;;;;;4968241;28;20238;-65
2023/08/11 01:42:22;;;;;;;3.43;2.53;;;15.30;99.90;;;;;;4967842;28;20653;-66
2023/08/11 01:44:50;;;;;;;3.40;2.10;;;15.30;99.90;;;;;;4968362;28;20219;-67
2023/08/11 01:47:18;;;;;;;2.70;2.50;;;15.30;99.90;;;;;;4968379;28;20217;-67
2023/08/11 01:49:46;;;;;;;3.50;2.27;;;15.20;99.90;;;;;;4968216;28;20601;-66
2023/08/11 01:52:14;;;;;;;2.40;2.20;;;15.20;99.90;;;;;;4968051;28;20768;-67
2023/08/11 01:54:43;;;;;;;2.77;2.00;;;15.20;99.90;;;;;;4968195;28;20237;-67
2023/08/11 01:57:10;;;;;;;3.90;2.40;;;15.20;99.90;;;;;;4967156;28;20206;-66
2023/08/11 01:59:39;;;;;;;2.53;2.10;;;15.20;99.90;;;;;;4967801;28;20210;-66
2023/08/11 02:02:08;;;;;;;4.90;2.20;;;15.20;99.90;;;;;;4967497;28;20266;-65
2023/08/11 02:04:34;;;;;;;2.20;2.00;;;15.20;99.90;;;;;;4967593;28;20553;-66
2023/08/11 02:07:01;;;;;;;4.30;2.37;;;15.20;99.90;;;;;;4967722;28;20987;-66
2023/08/11 02:09:28;;;;;;;2.20;2.00;;;15.20;99.90;;;;;;4967314;28;20955;-66
2023/08/11 02:11:55;;;;;;;2.67;2.10;;;15.20;99.90;;;;;;4967187;28;20236;-66
2023/08/11 02:14:22;;;;;;;5.33;2.50;;;15.20;99.90;;;;;;4967247;28;20211;-67
2023/08/11 02:16:51;;;;;;;2.63;2.20;;;15.20;99.90;;;;;;4967624;28;20666;-66
2023/08/11 02:19:18;;;;;;;3.83;2.10;;;15.20;99.90;;;;;;4963078;28;20231;-66
2023/08/11 02:21:45;;;;;;;2.90;1.97;;;15.20;99.90;;;;;;4967820;28;20241;-66
2023/08/11 02:24:14;;;;;;;2.03;1.70;;;15.20;99.90;;;;;;4967064;28;20897;-69
2023/08/11 02:26:41;;;;;;;4.50;2.37;;;15.20;99.90;;;;;;4965046;28;20501;-65
2023/08/11 02:29:08;;;;;;;2.67;2.10;;;15.20;99.90;;;;;;4965442;28;20293;-66
2023/08/11 02:31:35;;;;;;;2.00;1.90;;;15.30;99.90;;;;;;4965392;28;20239;-66
2023/08/11 02:34:04;;;;;;;4.50;1.90;;;15.30;99.90;;;;;;4966023;28;20297;-66
2023/08/11 02:36:31;;;;;;;4.90;2.20;;;15.30;99.90;;;;;;4965153;28;20211;-66
2023/08/11 02:38:58;;;;;;;2.07;1.87;;;15.30;99.90;;;;;;4965060;28;20325;-66
2023/08/11 02:41:25;;;;;;;2.60;2.13;;;15.30;99.90;;;;;;4969456;28;20326;-66
2023/08/11 02:43:52;;;;;;;3.60;2.27;;;15.40;99.90;;;;;;4965035;28;21034;-66
2023/08/11 02:46:19;;;;;;;1.90;1.80;;;15.40;99.90;;;;;;4965064;28;20217;-67
2023/08/11 02:48:46;;;;;;;2.23;2.03;;;15.40;99.90;;;;;;4965092;28;20294;-66
2023/08/11 02:51:15;;;;;;;2.37;2.17;;;15.40;99.90;;;;;;4964911;28;20210;-65
2023/08/11 02:53:41;;;;;;;2.83;2.30;;;15.40;99.90;;;;;;4965366;28;20273;-65
2023/08/11 02:56:11;;;;;;;4.07;2.20;;;15.50;99.90;;;;;;4965517;28;20215;-65
2023/08/11 02:58:38;;;;;;;3.57;2.53;;;15.50;99.90;;;;;;4965613;28;20210;-66
2023/08/11 03:01:05;;;;;;;5.07;2.20;;;15.40;99.90;;;;;;4950433;28;20211;-65
2023/08/11 03:03:32;;;;;;;2.00;1.90;;;15.50;99.90;;;;;;4964994;28;20342;-66
2023/08/11 03:05:59;;;;;;;3.73;2.40;;;15.50;99.90;;;;;;4964999;28;20215;-65
2023/08/11 03:08:27;;;;;;;5.40;2.70;;;15.50;99.90;;;;;;4966249;28;20215;-66
2023/08/11 03:10:54;;;;;;;2.37;2.17;;;15.50;99.90;;;;;;4963496;28;20203;-66
2023/08/11 03:13:21;;;;;;;4.07;2.30;;;15.50;99.90;;;;;;4965495;28;20751;-66
2023/08/11 03:15:48;;;;;;;3.63;2.40;;;15.50;99.90;;;;;;4965743;28;20321;-66
2023/08/11 03:18:15;;;;;;;3.37;2.43;;;15.50;99.90;;;;;;4965547;28;20717;-66
2023/08/11 03:20:42;;;;;;;2.27;2.17;;;15.60;99.90;;;;;;4966331;28;20238;-66
2023/08/11 03:23:09;;;;;;;4.23;2.50;;;15.60;99.90;;;;;;4965786;28;20242;-66
2023/08/11 03:25:37;;;;;;;3.27;2.40;;;15.60;99.90;;;;;;4966528;28;20302;-69
2023/08/11 03:28:05;;;;;;;2.77;2.20;;;15.60;99.90;;;;;;4967036;28;20301;-66
2023/08/11 03:30:32;;;;;;;3.30;2.30;;;15.60;99.90;;;;;;4966868;28;20306;-67
2023/08/11 03:32:58;;;;;;;2.40;2.30;;;15.60;99.90;;;;;;4966578;28;20238;-66
2023/08/11 03:35:25;;;;;;;3.13;2.40;;;15.60;99.90;;;;;;4966577;28;20700;-66
2023/08/11 03:37:52;;;;;;;3.07;2.30;;;15.60;99.90;;;;;;4966739;28;20309;-65
2023/08/11 03:40:21;;;;;;;2.20;2.00;;;15.70;99.90;;;;;;4966624;28;20216;-65
2023/08/11 03:42:49;;;;;;;2.50;2.30;;;15.70;99.90;;;;;;4966826;28;20274;-65
2023/08/11 03:45:16;;;;;;;3.00;2.27;;;15.70;99.90;;;;;;4966443;28;20309;-66
2023/08/11 03:47:43;;;;;;;2.23;2.13;;;15.60;99.90;;;;;;4966932;28;20229;-65
2023/08/11 03:50:11;;;;;;;3.50;2.60;;;15.70;99.90;;;;;;4969002;28;20298;-66
2023/08/11 03:52:38;;;;;;;2.27;2.07;;;15.60;99.90;;;;;;4970387;28;20230;-66
2023/08/11 03:55:09;;;;;;;4.97;2.17;;;15.70;99.90;;;;;;4970666;28;20640;-65
2023/08/11 03:57:36;;;;;;;2.63;2.13;;;15.70;99.90;;;;;;4970567;28;20278;-66
2023/08/11 04:00:09;;;;;;;4.20;2.57;;;15.60;99.90;;;;;;4970444;28;20301;-65
2023/08/11 04:02:36;;;;;;;4.03;2.47;;;15.70;99.90;;;;;;4970533;28;20257;-66
2023/08/11 04:05:03;;;;;;;4.33;2.70;;;15.70;99.90;;;;;;4970488;28;20217;-66
2023/08/11 04:07:30;;;;;;;3.20;2.50;;;15.70;99.90;;;;;;4969735;28;20238;-65
2023/08/11 04:09:58;;;;;;;2.83;2.30;;;15.70;99.90;;;;;;4970184;28;20243;-65
2023/08/11 04:12:25;;;;;;;2.53;2.33;;;15.70;99.90;;;;;;4969962;28;20230;-66
2023/08/11 04:14:52;;;;;;;2.43;2.23;;;15.70;99.90;;;;;;4970219;28;20238;-66
2023/08/11 04:17:20;;;;;;;4.07;2.70;;;15.70;99.90;;;;;;4952193;28;20291;-66
2023/08/11 04:19:48;;;;;;;2.50;2.30;;;15.70;99.90;;;;;;4965743;28;20317;-65
2023/08/11 04:22:15;;;;;;;2.47;2.27;;;15.70;99.90;;;;;;4969959;28;20816;-65
2023/08/11 04:24:42;;;;;;;2.50;2.30;;;15.60;99.90;;;;;;4969903;28;20225;-65
2023/08/11 04:27:09;;;;;;;6.97;2.60;;;15.60;99.90;;;;;;4969449;28;20246;-67
2023/08/11 04:29:36;;;;;;;3.87;2.47;;;15.60;99.90;;;;;;4969467;28;20306;-65
2023/08/11 04:32:04;;;;;;;3.93;2.20;;;15.60;99.90;;;;;;4969030;28;20309;-65
2023/08/11 04:34:32;;;;;;;7.33;2.70;;;15.60;99.90;;;;;;4969786;28;20235;-65
2023/08/11 04:37:00;;;;;;;5.07;2.23;;;15.60;99.90;;;;;;4970153;28;20238;-65
2023/08/11 04:39:27;;;;;;;3.73;2.70;;;15.60;99.90;;;;;;4969247;28;20214;-66
2023/08/11 04:41:53;;;;;;;2.60;2.43;;;15.50;99.90;;;;;;4952969;28;20211;-65
2023/08/11 04:44:20;;;;;;;5.30;2.60;;;15.50;99.90;;;;;;4950043;28;20314;-65
2023/08/11 04:46:47;;;;;;;4.20;2.73;;;15.50;99.90;;;;;;4950056;28;20688;-65
2023/08/11 04:49:14;;;;;;;4.23;2.47;;;15.50;99.90;;;;;;4949764;28;20303;-66
2023/08/11 04:51:43;;;;;;;3.27;2.70;;;15.50;99.90;;;;;;4949846;28;20295;-66
2023/08/11 04:54:11;;;;;;;3.10;2.80;;;15.50;99.90;;;;;;4957137;28;20243;-66
2023/08/11 04:56:38;;;;;;;3.93;2.77;;;15.50;99.90;;;;;;4969342;28;20207;-66
2023/08/11 04:59:05;;;;;;;7.77;2.67;;;15.50;99.90;;;;;;4969251;28;20683;-65
2023/08/11 05:01:32;;;;;;;7.23;2.97;;;15.50;99.90;;;;;;4968594;28;20215;-66
2023/08/11 05:03:59;;;;;;;3.40;3.10;;;15.50;99.90;;;;;;4968967;28;20317;-66
2023/08/11 05:06:26;;;;;;;3.47;3.13;;;15.60;99.90;;;;;;4968231;28;20217;-65
2023/08/11 05:08:54;;;;;;;3.00;2.63;;;15.60;99.90;;;;;;4968749;28;20664;-66
2023/08/11 05:11:21;;;;;;;3.60;3.30;;;15.60;99.90;;;;;;4968983;28;20214;-66
2023/08/11 05:13:48;;;;;;;2.60;2.40;;;15.60;99.90;;;;;;4968949;28;20233;-65
2023/08/11 05:16:15;;;;;;;2.97;2.60;;;15.70;99.90;;;;;;4968521;28;20217;-65
2023/08/11 05:18:42;;;;;;;4.40;2.70;;;15.70;99.90;;;;;;4950180;28;20224;-66
2023/08/11 05:21:08;;;;;;;3.57;2.67;;;15.80;99.90;;;;;;4949865;28;20290;-65
2023/08/11 05:23:35;;;;;;;3.07;2.77;;;15.90;99.90;;;;;;4951292;28;20215;-66
2023/08/11 05:26:04;;;;;;;2.80;2.60;;;16.00;99.90;;;;;;4969295;28;20206;-66
2023/08/11 05:28:30;;;;;;;4.77;2.57;;;16.10;99.90;;;;;;4973005;28;20214;-65
2023/08/11 05:30:57;;;;;;;3.17;2.90;;;16.20;99.90;;;;;;4987779;28;20943;-66
2023/08/11 05:33:24;;;;;;;4.50;2.50;;;16.20;99.90;;;;;;4987781;28;20795;-65
2023/08/11 05:35:51;;;;;;;4.43;2.47;;;16.20;99.90;;;;;;4988057;28;20206;-66
2023/08/11 05:38:21;;;;;;;5.50;2.80;;;16.30;99.90;;;;;;4987781;28;20268;-65
2023/08/11 05:40:48;;;;;;;4.47;2.80;;;16.40;99.90;;;;;;4979268;28;20652;-65
2023/08/11 05:43:16;;;;;;;5.37;2.83;;;16.40;99.90;;;;;;4968088;28;20238;-66
2023/08/11 05:45:43;;;;;;;5.70;2.90;;;16.50;99.90;;;;;;4968310;28;20293;-66
2023/08/11 05:48:13;;;;;;;3.77;2.70;;;16.50;99.90;;;;;;4968281;28;20238;-66
2023/08/11 05:50:40;;;;;;;5.13;3.07;;;16.60;99.90;;;;;;4968561;28;20238;-65
2023/08/11 05:53:07;;;;;;;4.67;2.73;;;16.60;99.90;;;;;;4968183;28;20321;-66
2023/08/11 05:55:34;;;;;;;5.20;2.70;;;16.70;99.90;;;;;;4968429;28;20301;-66
2023/08/11 05:58:01;;;;;;;3.37;2.80;;;16.70;99.90;;;;;;4968277;28;20242;-66
2023/08/11 06:00:29;;;;;;;3.77;2.90;;;16.80;99.90;;;;;;4967747;28;20700;-66
2023/08/11 06:02:56;;;;;;;3.43;2.80;;;16.70;99.90;;;;;;4967888;28;20207;-66
2023/08/11 06:05:23;;;;;;;6.97;2.67;;;16.80;99.90;;;;;;4967689;28;20321;-65
2023/08/11 06:07:50;;;;;;;4.37;2.70;;;16.80;99.90;;;;;;4967504;28;20229;-65
2023/08/11 06:10:17;;;;;;;4.63;3.13;;;16.80;99.90;;;;;;4967470;28;20221;-66
2023/08/11 06:12:44;;;;;;;3.20;2.90;;;16.80;99.90;;;;;;4966623;28;20968;-66
2023/08/11 06:15:12;;;;;;;3.53;2.90;;;16.90;99.90;;;;;;4967624;28;20245;-65
2023/08/11 06:17:40;;;;;;;4.23;2.70;;;16.90;99.90;;;;;;4967861;28;20214;-66
2023/08/11 06:20:10;;;;;;;4.20;2.43;;;17.00;99.90;;;;;;4967905;28;20306;-65
2023/08/11 06:22:37;;;;;;;5.30;3.20;;;17.00;99.90;;;;;;4966733;28;20217;-65
2023/08/11 06:25:05;;;;;;;3.10;2.77;;;17.00;99.90;;;;;;4971586;28;20226;-65
2023/08/11 06:27:32;;;;;;;3.30;2.70;;;17.10;99.90;;;;;;4987265;28;20237;-66
2023/08/11 06:29:59;;;;;;;2.93;2.70;;;17.10;99.90;;;;;;4987131;28;20721;-66
2023/08/11 06:32:26;;;;;;;4.37;2.60;;;17.10;99.90;;;;;;4986870;28;20233;-65
2023/08/11 06:34:54;;;;;;;4.87;2.77;;;17.10;99.90;;;;;;4987140;28;20245;-66
2023/08/11 06:37:21;;;;;;;3.67;2.73;;;17.10;99.90;;;;;;4986630;28;20754;-66
2023/08/11 06:39:48;;;;;;;6.27;3.10;;;17.00;99.90;;;;;;4987091;28;20264;-65
2023/08/11 06:42:17;;;;;;;6.00;2.73;;;17.10;99.90;;;;;;4967245;28;20686;-65
2023/08/11 06:44:45;;;;;;;3.23;2.93;;;17.00;99.90;;;;;;4967516;28;20214;-65
2023/08/11 06:47:11;;;;;;;5.17;2.70;;;16.90;99.90;;;;;;4967194;28;20573;-66
2023/08/11 06:49:38;;;;;;;4.97;2.80;;;16.90;99.90;;;;;;4966956;28;20309;-66
2023/08/11 06:52:07;;;;;;;4.83;2.60;;;17.00;99.90;;;;;;4966822;28;20246;-65
2023/08/11 06:54:34;;;;;;;3.37;2.50;;;17.00;99.90;;;;;;4967050;28;20250;-65
2023/08/11 06:57:03;;;;;;;4.70;2.70;;;17.10;99.90;;;;;;4966907;28;20211;-65
2023/08/11 06:59:30;;;;;;;4.23;2.77;;;17.10;99.90;;;;;;4967236;28;20301;-65
2023/08/11 07:01:57;;;;;;;4.30;2.57;;;17.20;99.90;;;;;;4967451;28;20236;-65
2023/08/11 07:04:24;;;;;;;4.07;2.50;;;17.30;99.90;;;;;;4967115;28;20737;-66
2023/08/11 07:06:51;;;;;;;2.43;2.23;;;17.30;99.90;;;;;;4967247;28;20587;-67
2023/08/11 07:09:19;;;;;;;4.03;2.63;;;17.40;99.90;;;;;;4966951;28;20298;-66
2023/08/11 07:11:46;;;;;;;3.00;2.57;;;17.40;99.90;;;;;;4967397;28;20211;-66
2023/08/11 07:14:13;;;;;;;2.57;2.37;;;17.50;99.90;;;;;;4966737;28;20233;-65
2023/08/11 07:16:40;;;;;;;2.47;2.27;;;17.50;99.90;;;;;;4966362;28;20701;-66
2023/08/11 07:19:07;;;;;;;5.13;2.73;;;17.70;99.90;;;;;;4967153;28;20258;-66
2023/08/11 07:21:34;;;;;;;6.70;2.90;;;17.70;99.90;;;;;;4974877;28;20851;-66
2023/08/11 07:24:01;;;;;;;4.90;2.63;;;17.70;99.90;;;;;;4985692;28;20297;-66
2023/08/11 07:26:29;;;;;;;3.00;2.20;;;17.80;99.90;;;;;;4985750;28;20654;-66
2023/08/11 07:28:56;;;;;;;6.23;2.60;;;17.80;99.90;;;;;;4986192;28;20207;-66
2023/08/11 07:31:23;;;;;;;3.20;2.30;;;17.80;99.90;;;;;;4985556;28;20255;-66
2023/08/11 07:33:50;;;;;;;4.83;2.53;;;17.90;99.90;;;;;;4986045;28;20232;-66
2023/08/11 07:36:17;;;;;;;10.23;3.23;;;18.00;99.90;;;;;;4985931;28;20216;-66
2023/08/11 07:38:44;;;;;;;6.13;2.67;;;18.10;99.90;;;;;;4985687;28;20220;-66
2023/08/11 07:41:10;;;;;;;5.50;2.63;;;18.10;99.90;;;;;;4974493;28;20278;-66
2023/08/11 07:43:39;;;;;;;4.80;2.20;;;18.10;99.90;;;;;;4966424;28;20760;-66
2023/08/11 07:46:06;;;;;;;7.07;2.60;;;18.20;99.90;;;;;;4966532;28;20293;-66
2023/08/11 07:48:33;;;;;;;4.80;2.47;;;18.20;99.90;;;;;;4966628;28;20214;-66
2023/08/11 07:51:00;;;;;;;3.17;2.30;;;18.20;99.90;;;;;;4966015;28;20210;-66
2023/08/11 07:53:27;;;;;;;5.17;2.53;;;18.30;99.90;;;;;;4965614;28;20234;-66
2023/08/11 07:55:53;;;;;;;7.53;2.50;;;18.30;99.90;;;;;;4966133;28;20299;-66
2023/08/11 07:58:20;;;;;;;4.90;2.77;;;18.40;99.90;;;;;;4966217;28;20281;-65
2023/08/11 08:00:50;;;;;;;2.50;2.27;;;18.30;99.90;;;;;;4966393;28;20623;-66
2023/08/11 08:03:16;;;;;;;3.53;2.30;;;18.40;99.90;;;;;;4966233;28;20585;-66
2023/08/11 08:05:43;;;;;;;2.77;2.20;;;18.30;99.90;;;;;;4966279;28;20199;-66
2023/08/11 08:08:11;;;;;;;4.53;2.33;;;18.40;99.90;;;;;;4965923;28;20325;-66
2023/08/11 08:10:38;;;;;;;3.23;1.87;;;18.40;99.90;;;;;;4966172;28;20298;-66
2023/08/11 08:13:05;;;;;;;5.63;2.27;;;18.50;99.90;;;;;;4965942;28;20207;-66
2023/08/11 08:15:32;;;;;;;5.63;2.57;;;18.50;99.90;;;;;;4965962;28;20601;-66
2023/08/11 08:18:00;;;;;;;6.83;2.07;;;18.50;99.90;;;;;;4966033;28;20305;-66
2023/08/11 08:20:27;;;;;;;3.80;2.10;;;18.50;99.90;;;;;;4966082;28;21045;-66
2023/08/11 08:22:54;;;;;;;5.80;2.47;;;18.50;99.90;;;;;;4965793;28;20299;-66
2023/08/11 08:25:21;;;;;;;3.80;2.30;;;18.50;99.90;;;;;;4965889;28;20218;-66
2023/08/11 08:27:48;;;;;;;6.17;2.70;;;18.60;99.90;;;;;;4966224;28;20302;-66
2023/08/11 08:30:15;;;;;;;3.47;2.50;;;18.60;99.90;;;;;;4965799;28;20238;-66
2023/08/11 08:32:43;;;;;;;3.40;2.07;;;18.60;99.90;;;;;;4965833;28;20238;-66
2023/08/11 08:35:11;;;;;;;3.47;2.00;;;18.70;99.90;;;;;;4966417;28;20269;-66
2023/08/11 08:37:38;;;;;;;2.40;2.13;;;18.70;99.90;;;;;;4969119;28;20294;-66
2023/08/11 08:40:08;;;;;;;2.73;2.27;;;18.70;99.90;;;;;;4968980;28;20218;-65
2023/08/11 08:42:35;;;;;;;2.57;1.93;;;18.80;99.90;;;;;;4969047;28;20258;-66
2023/08/11 08:45:03;;;;;;;2.57;2.10;;;18.80;99.90;;;;;;4969601;28;20249;-66
2023/08/11 08:47:30;;;;;;;4.27;2.17;;;18.90;99.90;;;;;;4969320;28;20339;-66
2023/08/11 08:49:59;;;;;;;3.37;2.03;;;18.90;99.90;;;;;;4969702;28;20221;-65
2023/08/11 08:52:28;;;;;;;2.80;2.00;;;19.00;99.90;;;;;;4969112;28;20301;-66
2023/08/11 08:54:56;;;;;;;10.73;2.10;;;19.10;99.90;;;;;;4969542;28;20239;-65
2023/08/11 08:57:26;;;;;;;2.53;1.70;;;19.10;99.90;;;;;;4969188;28;20211;-66
2023/08/11 08:59:53;;;;;;;2.10;1.60;;;19.30;99.90;;;;;;4969241;28;20207;-65
2023/08/11 09:02:21;;;;;;;5.13;1.53;;;19.60;99.90;;;;;;4968493;28;20581;-66
2023/08/11 09:04:48;;;;;;;3.53;1.20;;;19.60;99.90;;;;;;4968686;28;20215;-66
2023/08/11 09:07:16;;;;;;;4.77;1.53;;;19.70;99.90;;;;;;4968297;28;20222;-66
2023/08/11 09:09:44;;;;;;;3.77;1.50;;;19.80;99.90;;;;;;4968582;28;20300;-66
2023/08/11 09:12:11;;;;;;;1.57;1.47;;;19.80;99.90;;;;;;4968423;28;20225;-66
2023/08/11 09:14:38;;;;;;;2.27;1.60;;;20.00;99.90;;;;;;4981550;28;20233;-66
2023/08/11 09:17:06;;;;;;;1.40;1.27;;;20.10;99.90;;;;;;4971681;28;21129;-66
2023/08/11 09:19:33;;;;;;;3.47;1.10;;;20.10;99.90;;;;;;4968826;28;20258;-66
2023/08/11 09:22:00;;;;;;;0.70;0.70;;;20.30;99.90;;;;;;4969049;28;20211;-66
2023/08/11 09:24:30;;;;;;;1.73;1.10;;;20.50;99.90;;;;;;4968700;28;20222;-65
2023/08/11 09:26:59;;;;;;;0.83;0.83;;;20.50;99.90;;;;;;4969005;28;20207;-66
2023/08/11 09:29:26;;;;;;;1.00;1.00;;;20.60;99.90;;;;;;4968894;28;20219;-66
2023/08/11 09:31:55;;;;;;;0.73;0.73;;;20.50;99.90;;;;;;4968690;28;20341;-66
2023/08/11 09:34:23;;;;;;;0.80;0.80;;;20.50;99.90;;;;;;4968483;28;20241;-66
2023/08/11 09:36:50;;;;;;;1.33;0.90;;;20.50;99.90;;;;;;4968606;28;20658;-66
2023/08/11 09:39:18;;;;;;;2.47;1.17;;;20.70;99.90;;;;;;4968212;28;20584;-66
2023/08/11 09:41:47;;;;;;;4.13;1.53;;;20.80;99.90;;;;;;4968567;28;20237;-66
2023/08/11 09:44:17;;;;;;;0.87;0.77;;;20.90;99.90;;;;;;4968218;28;20269;-66
2023/08/11 09:46:46;;;;;;;1.57;1.13;;;20.90;99.90;;;;;;4967449;28;20202;-66
2023/08/11 09:49:13;;;;;;;2.92;1.00;;;21.00;99.90;;;;;;4967863;28;20207;-66
2023/08/11 09:51:40;;;;;;;3.13;1.00;;;21.00;99.90;;;;;;4968133;28;20217;-66
2023/08/11 09:54:09;;;;;;;3.20;1.30;;;21.00;99.90;;;;;;4967794;28;20238;-66
2023/08/11 09:56:37;;;;;;;5.50;1.27;;;21.00;99.90;;;;;;4967867;28;20218;-66
2023/08/11 09:59:05;;;;;;;1.87;1.20;;;21.00;99.90;;;;;;4968169;28;20215;-66
2023/08/11 10:01:35;;;;;;;2.67;1.80;;;21.00;99.90;;;;;;4968058;28;20206;-66
2023/08/11 10:04:07;;;;;;;5.60;1.90;;;20.90;99.90;;;;;;4968234;28;20203;-66
2023/08/11 10:06:37;;;;;;;7.10;2.00;;;21.00;99.90;;;;;;4968385;28;20292;-66
2023/08/11 10:09:07;;;;;;;1.87;1.77;;;20.90;99.90;;;;;;4958665;28;20718;-66
2023/08/11 10:11:36;;;;;;;3.03;1.80;;;21.00;99.90;;;;;;4967095;28;20211;-66
2023/08/11 10:14:04;;;;;;;3.15;1.67;;;21.10;99.90;;;;;;4968113;28;20211;-66
2023/08/11 10:16:33;;;;;;;2.42;1.60;;;21.20;99.90;;;;;;4967418;28;20946;-66
2023/08/11 10:19:01;;;;;;;2.38;1.20;;;21.20;99.90;;;;;;4967347;28;20804;-66
2023/08/11 10:21:28;;;;;;;3.25;1.52;;;21.30;99.90;;;;;;4967758;28;20207;-66
2023/08/11 10:23:55;;;;;;;1.80;1.30;;;21.30;99.90;;;;;;4967386;28;20217;-66
2023/08/11 10:26:24;;;;;;;3.15;1.00;;;21.40;99.90;;;;;;4967141;28;20241;-66
2023/08/11 10:28:52;;;;;;;1.30;1.20;;;21.40;99.90;;;;;;4967530;28;20217;-66
2023/08/11 10:31:18;;;;;;;1.73;1.15;;;21.40;99.90;;;;;;4966944;28;21273;-66
2023/08/11 10:33:51;;;;;;;1.55;0.98;;;21.50;99.90;;;;;;4967449;28;20195;-66
2023/08/11 10:36:22;;;;;;;0.98;0.70;;;21.60;99.90;;;;;;4967264;28;20210;-66
2023/08/11 10:39:00;;;;;;;0.80;0.80;;;21.70;99.90;;;;;;4967391;28;20194;-66
2023/08/11 10:41:28;;;;;;;0.68;0.68;;;21.80;99.90;;;;;;4953935;28;20207;-66
2023/08/11 10:43:56;;;;;;;1.02;0.70;;;21.90;99.90;;;;;;4947593;28;20330;-66
2023/08/11 10:46:24;;;;;;;3.58;1.10;;;21.90;99.90;;;;;;4947713;28;20588;-66
2023/08/11 10:48:54;;;;;;;2.03;0.93;;;22.00;99.90;;;;;;4947496;28;20302;-66
2023/08/11 10:51:32;;;;;;;2.92;1.27;;;22.00;99.90;;;;;;4947747;28;20631;-66
2023/08/11 10:54:03;;;;;;;1.02;1.00;;;22.20;99.90;;;;;;4964943;28;20355;-66
2023/08/11 10:56:33;;;;;;;1.25;1.00;;;22.20;99.90;;;;;;4966122;28;20217;-66
2023/08/11 10:59:13;;;;;;;0.90;0.90;;;22.30;99.90;;;;;;4965813;28;20967;-66
2023/08/11 11:01:43;;;;;;;1.70;0.90;;;22.20;99.90;;;;;;4966406;28;21031;-66
2023/08/11 11:04:12;;;;;;;0.90;0.90;;;22.20;99.90;;;;;;4966092;28;20739;-66
2023/08/11 11:06:40;;;;;;;6.18;1.42;;;22.20;99.90;;;;;;4956191;28;20246;-66
2023/08/11 11:09:08;;;;;;;0.70;0.55;;;22.20;99.90;;;;;;4966385;28;20241;-66
2023/08/11 11:11:36;;;;;;;1.42;0.80;;;22.30;99.90;;;;;;4966603;28;20218;-66
2023/08/11 11:14:04;;;;;;;0.77;0.77;;;22.30;99.90;;;;;;4966575;28;20230;-66
2023/08/11 11:16:33;;;;;;;2.75;1.20;;;22.50;99.90;;;;;;4954981;28;20907;-66
2023/08/11 11:19:00;;;;;;;1.30;1.20;;;22.60;99.90;;;;;;4947423;28;20238;-66
2023/08/11 11:21:28;;;;;;;1.00;0.93;;;22.80;99.90;;;;;;4947023;28;20564;-66
2023/08/11 11:23:56;;;;;;;2.30;1.10;;;23.20;99.90;;;;;;4947023;28;20302;-66
2023/08/11 11:26:25;;;;;;;1.92;1.13;;;23.40;99.90;;;;;;4946691;28;20587;-66
2023/08/11 11:28:54;;;;;;;1.67;1.00;;;23.40;99.90;;;;;;4962008;28;20215;-66
2023/08/11 11:31:22;;;;;;;2.90;1.02;;;23.20;99.90;;;;;;4966132;28;20231;-66
2023/08/11 11:33:50;;;;;;;1.40;1.20;;;23.10;99.90;;;;;;4966472;28;20210;-66
2023/08/11 11:36:19;;;;;;;1.40;1.20;;;23.20;99.90;;;;;;4966480;28;20650;-66
2023/08/11 11:38:48;;;;;;;2.65;1.10;;;23.40;99.90;;;;;;4965952;28;20258;-66
2023/08/11 11:41:16;;;;;;;1.25;1.08;;;23.60;99.90;;;;;;4954242;28;20211;-66
2023/08/11 11:43:45;;;;;;;1.35;1.10;;;23.80;99.90;;;;;;4946981;28;20242;-66
2023/08/11 11:46:15;;;;;;;0.98;0.98;;;23.60;99.90;;;;;;4946595;28;20217;-67
2023/08/11 11:48:44;;;;;;;1.08;1.08;;;23.70;99.90;;;;;;4951847;28;20662;-66
2023/08/11 11:51:11;;;;;;;1.50;0.80;;;23.80;99.90;;;;;;4957221;28;20266;-66
2023/08/11 11:53:39;;;;;;;2.80;1.35;;;24.00;99.90;;;;;;4946675;28;20211;-66
2023/08/11 11:56:08;;;;;;;1.85;0.80;;;24.10;99.90;;;;;;4946777;28;20228;-66
2023/08/11 11:58:38;;;;;;;1.52;0.93;;;24.30;99.90;;;;;;4946947;28;20215;-66
2023/08/11 12:01:17;;;;;;;1.35;0.95;;;24.60;99.90;;;;;;4951501;28;20625;-66
2023/08/11 12:03:44;;;;;;;1.20;0.80;;;24.80;99.90;;;;;;4965849;28;20865;-66
2023/08/11 12:06:13;;;;;;;1.85;0.93;;;25.10;99.90;;;;;;4965874;28;20211;-66
2023/08/11 12:08:41;;;;;;;3.38;1.10;;;25.20;99.90;;;;;;4965633;28;20222;-66
2023/08/11 12:11:11;;;;;;;1.23;1.10;;;25.40;99.90;;;;;;4967740;28;20211;-66
2023/08/11 12:13:40;;;;;;;1.05;0.85;;;25.50;99.90;;;;;;4969815;28;20297;-66
2023/08/11 12:16:08;;;;;;;1.85;1.10;;;25.60;99.90;;;;;;4961031;28;20821;-66
2023/08/11 12:18:35;;;;;;;1.40;1.10;;;25.50;99.90;;;;;;4950653;28;20231;-66
2023/08/11 12:21:03;;;;;;;2.53;0.88;;;25.20;99.90;;;;;;4950331;28;21056;-66
2023/08/11 12:23:30;;;;;;;5.45;1.30;;;25.10;99.90;;;;;;4952042;28;20215;-66
2023/08/11 12:25:57;;;;;;;1.90;1.00;;;25.30;99.90;;;;;;4969969;28;20225;-66
2023/08/11 12:28:26;;;;;;;1.70;0.80;;;25.50;99.90;;;;;;4969737;28;20703;-66
2023/08/11 12:30:53;;;;;;;0.70;0.70;;;25.40;99.90;;;;;;4969852;28;20213;-66
2023/08/11 12:33:20;;;;;;;1.73;1.02;;;25.50;99.90;;;;;;4969468;28;20211;-66
2023/08/11 12:35:48;;;;;;;0.70;0.70;;;25.60;99.90;;;;;;4969588;28;20252;-66
2023/08/11 12:38:15;;;;;;;1.00;0.90;;;25.60;99.90;;;;;;4969057;28;20666;-66
2023/08/11 12:40:43;;;;;;;2.05;0.88;;;25.80;99.90;;;;;;4962325;28;20661;-66
2023/08/11 12:43:10;;;;;;;0.90;0.90;;;25.50;99.90;;;;;;4949843;28;20685;-66
2023/08/11 12:45:39;;;;;;;0.70;0.70;;;25.60;99.90;;;;;;4960469;28;20728;-66
2023/08/11 12:48:07;;;;;;;3.95;0.77;;;25.80;99.90;;;;;;4955308;28;20550;-66